sensor_id;sensor_type;location;lat;lon;timestamp;P1;durP1;ratioP1;P2;durP2;ratioP2
6131;SDS011;3097;42.692;23.278;2023-07-16T00:01:57;18.07;;;14.10;;
6131;SDS011;3097;42.692;23.278;2023-07-16T00:04:23;14.70;;;13.10;;
6131;SDS011;3097;42.692;23.278;2023-07-16T00:06:48;17.63;;;13.30;;
6131;SDS011;3097;42.692;23.278;2023-07-16T00:09:14;12.13;;;10.50;;
6131;SDS011;3097;42.692;23.278;2023-07-16T00:11:40;13.10;;;11.70;;
6131;SDS011;3097;42.692;23.278;2023-07-16T00:14:05;16.70;;;12.00;;
6131;SDS011;3097;42.692;23.278;2023-07-16T00:16:31;14.77;;;11.63;;
6131;SDS011;3097;42.692;23.278;2023-07-16T00:18:56;13.20;;;11.90;;
6131;SDS011;3097;42.692;23.278;2023-07-16T00:21:22;12.93;;;11.67;;
6131;SDS011;3097;42.692;23.278;2023-07-16T00:23:48;12.50;;;11.23;;
6131;SDS011;3097;42.692;23.278;2023-07-16T00:26:14;15.17;;;11.57;;
6131;SDS011;3097;42.692;23.278;2023-07-16T00:28:39;12.80;;;11.43;;
6131;SDS011;3097;42.692;23.278;2023-07-16T00:31:05;11.90;;;10.70;;
6131;SDS011;3097;42.692;23.278;2023-07-16T00:33:30;12.10;;;10.80;;
6131;SDS011;3097;42.692;23.278;2023-07-16T00:35:56;12.93;;;10.77;;
6131;SDS011;3097;42.692;23.278;2023-07-16T00:38:21;12.80;;;10.87;;
6131;SDS011;3097;42.692;23.278;2023-07-16T00:40:47;12.70;;;10.73;;
6131;SDS011;3097;42.692;23.278;2023-07-16T00:43:13;11.47;;;10.10;;
6131;SDS011;3097;42.692;23.278;2023-07-16T00:45:39;11.80;;;10.40;;
6131;SDS011;3097;42.692;23.278;2023-07-16T00:48:05;12.23;;;11.00;;
6131;SDS011;3097;42.692;23.278;2023-07-16T00:50:32;12.13;;;10.93;;
6131;SDS011;3097;42.692;23.278;2023-07-16T00:53:02;12.83;;;10.63;;
6131;SDS011;3097;42.692;23.278;2023-07-16T00:55:29;12.27;;;10.30;;
6131;SDS011;3097;42.692;23.278;2023-07-16T00:57:55;12.43;;;10.83;;
6131;SDS011;3097;42.692;23.278;2023-07-16T01:00:26;13.77;;;10.40;;
6131;SDS011;3097;42.692;23.278;2023-07-16T01:02:52;11.53;;;10.40;;
6131;SDS011;3097;42.692;23.278;2023-07-16T01:05:17;11.33;;;10.23;;
6131;SDS011;3097;42.692;23.278;2023-07-16T01:07:44;13.07;;;10.53;;
6131;SDS011;3097;42.692;23.278;2023-07-16T01:10:19;11.30;;;10.23;;
6131;SDS011;3097;42.692;23.278;2023-07-16T01:12:46;13.50;;;10.17;;
6131;SDS011;3097;42.692;23.278;2023-07-16T01:15:12;14.97;;;10.33;;
6131;SDS011;3097;42.692;23.278;2023-07-16T01:17:37;11.90;;;10.70;;
6131;SDS011;3097;42.692;23.278;2023-07-16T01:20:03;11.40;;;10.17;;
6131;SDS011;3097;42.692;23.278;2023-07-16T01:30:25;10.40;;;9.30;;
6131;SDS011;3097;42.692;23.278;2023-07-16T01:32:53;10.50;;;9.20;;
6131;SDS011;3097;42.692;23.278;2023-07-16T01:35:19;11.23;;;10.10;;
6131;SDS011;3097;42.692;23.278;2023-07-16T01:37:46;10.50;;;9.33;;
6131;SDS011;3097;42.692;23.278;2023-07-16T01:40:11;9.70;;;8.77;;
6131;SDS011;3097;42.692;23.278;2023-07-16T01:42:37;9.77;;;8.80;;
6131;SDS011;3097;42.692;23.278;2023-07-16T01:45:03;10.70;;;9.23;;
6131;SDS011;3097;42.692;23.278;2023-07-16T01:49:54;10.43;;;8.60;;
6131;SDS011;3097;42.692;23.278;2023-07-16T01:52:20;9.40;;;8.47;;
6131;SDS011;3097;42.692;23.278;2023-07-16T01:54:46;9.77;;;8.63;;
6131;SDS011;3097;42.692;23.278;2023-07-16T01:57:11;8.83;;;7.93;;
6131;SDS011;3097;42.692;23.278;2023-07-16T01:59:37;9.37;;;8.47;;
6131;SDS011;3097;42.692;23.278;2023-07-16T02:02:02;9.23;;;8.33;;
6131;SDS011;3097;42.692;23.278;2023-07-16T02:04:28;12.03;;;7.90;;
6131;SDS011;3097;42.692;23.278;2023-07-16T02:06:54;7.93;;;7.23;;
6131;SDS011;3097;42.692;23.278;2023-07-16T02:09:20;10.23;;;7.00;;
6131;SDS011;3097;42.692;23.278;2023-07-16T02:11:46;7.07;;;6.47;;
6131;SDS011;3097;42.692;23.278;2023-07-16T02:14:11;8.30;;;7.10;;
6131;SDS011;3097;42.692;23.278;2023-07-16T02:16:39;7.53;;;6.73;;
6131;SDS011;3097;42.692;23.278;2023-07-16T02:19:04;7.77;;;7.07;;
6131;SDS011;3097;42.692;23.278;2023-07-16T02:21:30;7.50;;;6.03;;
6131;SDS011;3097;42.692;23.278;2023-07-16T02:23:55;7.43;;;6.70;;
6131;SDS011;3097;42.692;23.278;2023-07-16T02:26:21;8.73;;;7.93;;
6131;SDS011;3097;42.692;23.278;2023-07-16T02:28:46;7.60;;;7.00;;
6131;SDS011;3097;42.692;23.278;2023-07-16T02:31:11;9.20;;;8.30;;
6131;SDS011;3097;42.692;23.278;2023-07-16T02:33:37;7.43;;;6.73;;
6131;SDS011;3097;42.692;23.278;2023-07-16T02:36:02;6.87;;;6.27;;
6131;SDS011;3097;42.692;23.278;2023-07-16T02:38:28;9.17;;;8.33;;
6131;SDS011;3097;42.692;23.278;2023-07-16T02:40:53;7.10;;;6.50;;
6131;SDS011;3097;42.692;23.278;2023-07-16T02:43:19;7.67;;;6.60;;
6131;SDS011;3097;42.692;23.278;2023-07-16T02:45:45;6.00;;;5.50;;
6131;SDS011;3097;42.692;23.278;2023-07-16T02:48:10;9.47;;;8.57;;
6131;SDS011;3097;42.692;23.278;2023-07-16T02:50:36;7.93;;;6.77;;
6131;SDS011;3097;42.692;23.278;2023-07-16T02:53:05;15.33;;;11.47;;
6131;SDS011;3097;42.692;23.278;2023-07-16T02:55:32;8.30;;;7.60;;
6131;SDS011;3097;42.692;23.278;2023-07-16T02:57:57;5.60;;;5.20;;
6131;SDS011;3097;42.692;23.278;2023-07-16T03:00:23;12.80;;;10.33;;
6131;SDS011;3097;42.692;23.278;2023-07-16T03:02:49;7.03;;;6.33;;
6131;SDS011;3097;42.692;23.278;2023-07-16T03:05:16;8.40;;;7.53;;
6131;SDS011;3097;42.692;23.278;2023-07-16T03:07:42;6.83;;;6.23;;
6131;SDS011;3097;42.692;23.278;2023-07-16T03:10:08;9.57;;;8.70;;
6131;SDS011;3097;42.692;23.278;2023-07-16T03:12:33;9.13;;;8.23;;
6131;SDS011;3097;42.692;23.278;2023-07-16T03:14:59;10.27;;;8.00;;
6131;SDS011;3097;42.692;23.278;2023-07-16T03:17:24;6.07;;;5.57;;
6131;SDS011;3097;42.692;23.278;2023-07-16T03:19:50;5.73;;;5.33;;
6131;SDS011;3097;42.692;23.278;2023-07-16T03:22:15;10.60;;;8.07;;
6131;SDS011;3097;42.692;23.278;2023-07-16T03:24:41;5.63;;;5.23;;
6131;SDS011;3097;42.692;23.278;2023-07-16T03:27:06;7.70;;;7.00;;
6131;SDS011;3097;42.692;23.278;2023-07-16T03:29:32;6.23;;;5.73;;
6131;SDS011;3097;42.692;23.278;2023-07-16T03:31:58;6.17;;;5.67;;
6131;SDS011;3097;42.692;23.278;2023-07-16T03:34:23;10.23;;;9.20;;
6131;SDS011;3097;42.692;23.278;2023-07-16T03:36:49;6.87;;;6.37;;
6131;SDS011;3097;42.692;23.278;2023-07-16T03:39:14;6.47;;;5.87;;
6131;SDS011;3097;42.692;23.278;2023-07-16T03:41:40;5.97;;;5.47;;
6131;SDS011;3097;42.692;23.278;2023-07-16T03:44:05;7.37;;;6.53;;
6131;SDS011;3097;42.692;23.278;2023-07-16T03:46:30;11.77;;;9.30;;
6131;SDS011;3097;42.692;23.278;2023-07-16T03:48:56;8.57;;;7.87;;
6131;SDS011;3097;42.692;23.278;2023-07-16T03:51:21;6.53;;;6.03;;
6131;SDS011;3097;42.692;23.278;2023-07-16T03:53:47;6.07;;;5.57;;
6131;SDS011;3097;42.692;23.278;2023-07-16T03:56:12;9.97;;;8.50;;
6131;SDS011;3097;42.692;23.278;2023-07-16T03:58:38;8.43;;;7.63;;
6131;SDS011;3097;42.692;23.278;2023-07-16T04:01:03;6.37;;;5.77;;
6131;SDS011;3097;42.692;23.278;2023-07-16T04:03:28;6.50;;;6.00;;
6131;SDS011;3097;42.692;23.278;2023-07-16T04:06:00;6.97;;;5.93;;
6131;SDS011;3097;42.692;23.278;2023-07-16T04:08:29;6.80;;;6.30;;
6131;SDS011;3097;42.692;23.278;2023-07-16T04:10:55;9.37;;;6.13;;
6131;SDS011;3097;42.692;23.278;2023-07-16T04:13:20;6.73;;;5.50;;
6131;SDS011;3097;42.692;23.278;2023-07-16T04:15:45;6.17;;;5.67;;
6131;SDS011;3097;42.692;23.278;2023-07-16T04:18:11;6.90;;;6.30;;
6131;SDS011;3097;42.692;23.278;2023-07-16T04:20:36;5.77;;;5.37;;
6131;SDS011;3097;42.692;23.278;2023-07-16T04:23:02;7.10;;;6.23;;
6131;SDS011;3097;42.692;23.278;2023-07-16T04:25:27;6.67;;;5.90;;
6131;SDS011;3097;42.692;23.278;2023-07-16T04:27:53;7.07;;;6.00;;
6131;SDS011;3097;42.692;23.278;2023-07-16T04:30:18;6.20;;;5.70;;
6131;SDS011;3097;42.692;23.278;2023-07-16T04:32:44;6.00;;;5.50;;
6131;SDS011;3097;42.692;23.278;2023-07-16T04:35:09;7.30;;;6.17;;
6131;SDS011;3097;42.692;23.278;2023-07-16T04:37:35;6.10;;;5.60;;
6131;SDS011;3097;42.692;23.278;2023-07-16T04:40:00;5.53;;;5.23;;
6131;SDS011;3097;42.692;23.278;2023-07-16T04:42:25;5.72;;;5.30;;
6131;SDS011;3097;42.692;23.278;2023-07-16T04:44:51;6.13;;;5.70;;
6131;SDS011;3097;42.692;23.278;2023-07-16T04:47:17;5.97;;;5.47;;
6131;SDS011;3097;42.692;23.278;2023-07-16T04:49:42;7.55;;;6.00;;
6131;SDS011;3097;42.692;23.278;2023-07-16T04:52:08;6.85;;;5.70;;
6131;SDS011;3097;42.692;23.278;2023-07-16T04:54:37;5.68;;;5.28;;
6131;SDS011;3097;42.692;23.278;2023-07-16T04:57:03;6.00;;;5.45;;
6131;SDS011;3097;42.692;23.278;2023-07-16T04:59:29;6.25;;;5.65;;
6131;SDS011;3097;42.692;23.278;2023-07-16T05:01:55;5.80;;;5.40;;
6131;SDS011;3097;42.692;23.278;2023-07-16T05:04:20;5.80;;;5.40;;
6131;SDS011;3097;42.692;23.278;2023-07-16T05:06:45;6.32;;;5.80;;
6131;SDS011;3097;42.692;23.278;2023-07-16T05:09:11;5.97;;;5.57;;
6131;SDS011;3097;42.692;23.278;2023-07-16T05:11:36;6.00;;;5.60;;
6131;SDS011;3097;42.692;23.278;2023-07-16T05:14:03;6.47;;;5.63;;
6131;SDS011;3097;42.692;23.278;2023-07-16T05:16:28;6.53;;;5.95;;
6131;SDS011;3097;42.692;23.278;2023-07-16T05:18:54;7.30;;;6.07;;
6131;SDS011;3097;42.692;23.278;2023-07-16T05:21:19;6.70;;;6.20;;
6131;SDS011;3097;42.692;23.278;2023-07-16T05:23:44;5.97;;;5.47;;
6131;SDS011;3097;42.692;23.278;2023-07-16T05:26:10;6.07;;;5.63;;
6131;SDS011;3097;42.692;23.278;2023-07-16T05:28:35;6.25;;;5.75;;
6131;SDS011;3097;42.692;23.278;2023-07-16T05:31:01;6.20;;;5.45;;
6131;SDS011;3097;42.692;23.278;2023-07-16T05:33:27;5.88;;;5.47;;
6131;SDS011;3097;42.692;23.278;2023-07-16T05:35:53;6.60;;;5.95;;
6131;SDS011;3097;42.692;23.278;2023-07-16T05:38:18;6.00;;;5.60;;
6131;SDS011;3097;42.692;23.278;2023-07-16T05:40:44;5.35;;;4.95;;
6131;SDS011;3097;42.692;23.278;2023-07-16T05:43:09;5.38;;;5.07;;
6131;SDS011;3097;42.692;23.278;2023-07-16T05:45:36;5.93;;;5.53;;
6131;SDS011;3097;42.692;23.278;2023-07-16T05:48:01;5.75;;;5.35;;
6131;SDS011;3097;42.692;23.278;2023-07-16T05:50:27;5.53;;;5.13;;
6131;SDS011;3097;42.692;23.278;2023-07-16T05:52:52;5.50;;;5.10;;
6131;SDS011;3097;42.692;23.278;2023-07-16T05:55:18;8.70;;;5.07;;
6131;SDS011;3097;42.692;23.278;2023-07-16T05:57:43;5.63;;;5.22;;
6131;SDS011;3097;42.692;23.278;2023-07-16T06:00:09;5.47;;;5.13;;
6131;SDS011;3097;42.692;23.278;2023-07-16T06:02:35;6.35;;;5.75;;
6131;SDS011;3097;42.692;23.278;2023-07-16T06:05:00;5.40;;;5.00;;
6131;SDS011;3097;42.692;23.278;2023-07-16T06:07:26;5.72;;;5.32;;
6131;SDS011;3097;42.692;23.278;2023-07-16T06:09:51;5.78;;;5.28;;
6131;SDS011;3097;42.692;23.278;2023-07-16T06:12:17;6.00;;;5.60;;
6131;SDS011;3097;42.692;23.278;2023-07-16T06:14:42;5.97;;;5.38;;
6131;SDS011;3097;42.692;23.278;2023-07-16T06:17:08;5.30;;;5.00;;
6131;SDS011;3097;42.692;23.278;2023-07-16T06:19:33;5.68;;;5.28;;
6131;SDS011;3097;42.692;23.278;2023-07-16T06:22:00;5.80;;;5.40;;
6131;SDS011;3097;42.692;23.278;2023-07-16T06:24:26;5.70;;;5.40;;
6131;SDS011;3097;42.692;23.278;2023-07-16T06:26:51;5.68;;;5.32;;
6131;SDS011;3097;42.692;23.278;2023-07-16T06:29:17;6.07;;;5.57;;
6131;SDS011;3097;42.692;23.278;2023-07-16T06:31:42;6.20;;;5.50;;
6131;SDS011;3097;42.692;23.278;2023-07-16T06:34:09;5.47;;;5.07;;
6131;SDS011;3097;42.692;23.278;2023-07-16T06:36:35;5.53;;;5.13;;
6131;SDS011;3097;42.692;23.278;2023-07-16T06:39:00;5.95;;;5.40;;
6131;SDS011;3097;42.692;23.278;2023-07-16T06:41:25;5.85;;;5.55;;
6131;SDS011;3097;42.692;23.278;2023-07-16T06:43:51;5.75;;;5.35;;
6131;SDS011;3097;42.692;23.278;2023-07-16T06:46:16;5.88;;;5.47;;
6131;SDS011;3097;42.692;23.278;2023-07-16T06:48:42;5.97;;;5.47;;
6131;SDS011;3097;42.692;23.278;2023-07-16T06:51:07;5.93;;;5.53;;
6131;SDS011;3097;42.692;23.278;2023-07-16T06:53:33;6.80;;;6.18;;
6131;SDS011;3097;42.692;23.278;2023-07-16T06:55:58;6.47;;;6.07;;
6131;SDS011;3097;42.692;23.278;2023-07-16T06:58:33;6.28;;;5.88;;
6131;SDS011;3097;42.692;23.278;2023-07-16T07:00:59;6.28;;;5.78;;
6131;SDS011;3097;42.692;23.278;2023-07-16T07:03:24;6.57;;;6.00;;
6131;SDS011;3097;42.692;23.278;2023-07-16T07:05:50;7.18;;;6.47;;
6131;SDS011;3097;42.692;23.278;2023-07-16T07:08:15;7.07;;;6.57;;
6131;SDS011;3097;42.692;23.278;2023-07-16T07:10:40;7.20;;;6.60;;
6131;SDS011;3097;42.692;23.278;2023-07-16T07:13:06;6.70;;;6.30;;
6131;SDS011;3097;42.692;23.278;2023-07-16T07:15:31;7.13;;;6.60;;
6131;SDS011;3097;42.692;23.278;2023-07-16T07:17:57;6.50;;;5.95;;
6131;SDS011;3097;42.692;23.278;2023-07-16T07:20:22;6.63;;;6.07;;
6131;SDS011;3097;42.692;23.278;2023-07-16T07:22:48;6.75;;;6.15;;
6131;SDS011;3097;42.692;23.278;2023-07-16T07:25:13;6.85;;;6.32;;
6131;SDS011;3097;42.692;23.278;2023-07-16T07:27:38;7.25;;;6.50;;
6131;SDS011;3097;42.692;23.278;2023-07-16T07:30:04;7.70;;;7.03;;
6131;SDS011;3097;42.692;23.278;2023-07-16T07:32:30;7.22;;;6.80;;
6131;SDS011;3097;42.692;23.278;2023-07-16T07:34:55;7.35;;;6.75;;
6131;SDS011;3097;42.692;23.278;2023-07-16T07:37:21;7.18;;;6.78;;
6131;SDS011;3097;42.692;23.278;2023-07-16T07:39:51;6.68;;;6.18;;
6131;SDS011;3097;42.692;23.278;2023-07-16T07:42:17;7.22;;;6.63;;
6131;SDS011;3097;42.692;23.278;2023-07-16T07:44:43;7.53;;;6.93;;
6131;SDS011;3097;42.692;23.278;2023-07-16T07:47:08;7.97;;;7.18;;
6131;SDS011;3097;42.692;23.278;2023-07-16T07:49:34;7.15;;;6.53;;
6131;SDS011;3097;42.692;23.278;2023-07-16T07:51:59;7.47;;;6.78;;
6131;SDS011;3097;42.692;23.278;2023-07-16T07:54:25;7.03;;;6.53;;
6131;SDS011;3097;42.692;23.278;2023-07-16T07:56:51;7.35;;;6.75;;
6131;SDS011;3097;42.692;23.278;2023-07-16T07:59:16;7.20;;;6.60;;
6131;SDS011;3097;42.692;23.278;2023-07-16T08:01:42;7.07;;;6.50;;
6131;SDS011;3097;42.692;23.278;2023-07-16T08:04:07;7.55;;;7.05;;
6131;SDS011;3097;42.692;23.278;2023-07-16T08:06:32;7.35;;;6.65;;
6131;SDS011;3097;42.692;23.278;2023-07-16T08:08:58;10.55;;;7.38;;
6131;SDS011;3097;42.692;23.278;2023-07-16T08:11:23;7.75;;;6.95;;
6131;SDS011;3097;42.692;23.278;2023-07-16T08:13:49;8.55;;;6.90;;
6131;SDS011;3097;42.692;23.278;2023-07-16T08:16:14;7.40;;;6.90;;
6131;SDS011;3097;42.692;23.278;2023-07-16T08:18:40;7.85;;;7.25;;
6131;SDS011;3097;42.692;23.278;2023-07-16T08:21:05;7.65;;;7.05;;
6131;SDS011;3097;42.692;23.278;2023-07-16T08:23:31;7.88;;;7.38;;
6131;SDS011;3097;42.692;23.278;2023-07-16T08:25:56;7.55;;;7.05;;
6131;SDS011;3097;42.692;23.278;2023-07-16T08:28:22;7.68;;;6.65;;
6131;SDS011;3097;42.692;23.278;2023-07-16T08:30:47;7.53;;;6.90;;
6131;SDS011;3097;42.692;23.278;2023-07-16T08:33:13;7.32;;;6.82;;
6131;SDS011;3097;42.692;23.278;2023-07-16T08:35:39;7.60;;;7.00;;
6131;SDS011;3097;42.692;23.278;2023-07-16T08:38:06;7.22;;;6.72;;
6131;SDS011;3097;42.692;23.278;2023-07-16T08:40:35;8.02;;;7.32;;
6131;SDS011;3097;42.692;23.278;2023-07-16T08:43:03;7.00;;;6.45;;
6131;SDS011;3097;42.692;23.278;2023-07-16T08:45:31;7.75;;;7.05;;
6131;SDS011;3097;42.692;23.278;2023-07-16T08:48:04;8.15;;;7.47;;
6131;SDS011;3097;42.692;23.278;2023-07-16T08:50:30;7.63;;;7.13;;
6131;SDS011;3097;42.692;23.278;2023-07-16T08:52:56;8.23;;;7.63;;
6131;SDS011;3097;42.692;23.278;2023-07-16T08:55:23;9.00;;;8.35;;
6131;SDS011;3097;42.692;23.278;2023-07-16T08:57:48;8.70;;;8.00;;
6131;SDS011;3097;42.692;23.278;2023-07-16T09:00:14;9.07;;;8.18;;
6131;SDS011;3097;42.692;23.278;2023-07-16T09:02:40;8.73;;;8.02;;
6131;SDS011;3097;42.692;23.278;2023-07-16T09:05:06;9.02;;;8.32;;
6131;SDS011;3097;42.692;23.278;2023-07-16T09:07:35;7.65;;;7.15;;
6131;SDS011;3097;42.692;23.278;2023-07-16T09:10:02;10.30;;;9.40;;
6131;SDS011;3097;42.692;23.278;2023-07-16T09:12:28;9.23;;;8.43;;
6131;SDS011;3097;42.692;23.278;2023-07-16T09:14:55;9.07;;;8.27;;
6131;SDS011;3097;42.692;23.278;2023-07-16T09:17:21;8.38;;;7.72;;
6131;SDS011;3097;42.692;23.278;2023-07-16T09:19:48;8.57;;;7.88;;
6131;SDS011;3097;42.692;23.278;2023-07-16T09:22:13;8.68;;;7.97;;
6131;SDS011;3097;42.692;23.278;2023-07-16T09:24:44;8.80;;;8.00;;
6131;SDS011;3097;42.692;23.278;2023-07-16T09:27:11;8.60;;;7.30;;
6131;SDS011;3097;42.692;23.278;2023-07-16T09:29:37;8.93;;;8.25;;
6131;SDS011;3097;42.692;23.278;2023-07-16T09:32:04;9.30;;;8.27;;
6131;SDS011;3097;42.692;23.278;2023-07-16T09:34:32;9.55;;;8.63;;
6131;SDS011;3097;42.692;23.278;2023-07-16T09:36:58;9.05;;;8.25;;
6131;SDS011;3097;42.692;23.278;2023-07-16T09:39:25;9.18;;;8.32;;
6131;SDS011;3097;42.692;23.278;2023-07-16T09:41:52;9.07;;;8.27;;
6131;SDS011;3097;42.692;23.278;2023-07-16T09:44:19;11.20;;;9.75;;
6131;SDS011;3097;42.692;23.278;2023-07-16T09:46:45;8.55;;;7.85;;
6131;SDS011;3097;42.692;23.278;2023-07-16T09:49:11;8.57;;;7.97;;
6131;SDS011;3097;42.692;23.278;2023-07-16T09:51:38;9.40;;;8.48;;
6131;SDS011;3097;42.692;23.278;2023-07-16T09:54:05;8.35;;;7.72;;
6131;SDS011;3097;42.692;23.278;2023-07-16T09:56:32;9.07;;;8.13;;
6131;SDS011;3097;42.692;23.278;2023-07-16T09:59:05;9.38;;;8.57;;
6131;SDS011;3097;42.692;23.278;2023-07-16T10:01:36;10.88;;;9.85;;
6131;SDS011;3097;42.692;23.278;2023-07-16T10:04:13;9.57;;;8.68;;
6131;SDS011;3097;42.692;23.278;2023-07-16T10:09:40;10.25;;;9.25;;
6131;SDS011;3097;42.692;23.278;2023-07-16T10:12:08;9.48;;;8.43;;
6131;SDS011;3097;42.692;23.278;2023-07-16T10:14:51;10.45;;;9.45;;
6131;SDS011;3097;42.692;23.278;2023-07-16T10:17:21;9.63;;;8.80;;
6131;SDS011;3097;42.692;23.278;2023-07-16T10:24:58;10.05;;;9.15;;
6131;SDS011;3097;42.692;23.278;2023-07-16T10:27:30;9.88;;;8.98;;
6131;SDS011;3097;42.692;23.278;2023-07-16T10:29:56;10.30;;;9.40;;
6131;SDS011;3097;42.692;23.278;2023-07-16T10:32:23;9.98;;;9.18;;
6131;SDS011;3097;42.692;23.278;2023-07-16T10:34:53;11.73;;;9.68;;
6131;SDS011;3097;42.692;23.278;2023-07-16T10:37:18;10.20;;;9.32;;
6131;SDS011;3097;42.692;23.278;2023-07-16T10:39:47;13.15;;;11.18;;
6131;SDS011;3097;42.692;23.278;2023-07-16T10:42:15;10.88;;;9.77;;
6131;SDS011;3097;42.692;23.278;2023-07-16T10:44:41;11.55;;;9.88;;
6131;SDS011;3097;42.692;23.278;2023-07-16T10:47:07;10.00;;;9.20;;
6131;SDS011;3097;42.692;23.278;2023-07-16T10:49:33;10.52;;;9.50;;
6131;SDS011;3097;42.692;23.278;2023-07-16T10:51:59;11.23;;;9.73;;
6131;SDS011;3097;42.692;23.278;2023-07-16T10:54:25;11.50;;;10.43;;
6131;SDS011;3097;42.692;23.278;2023-07-16T10:56:51;9.80;;;8.80;;
6131;SDS011;3097;42.692;23.278;2023-07-16T10:59:17;11.55;;;9.80;;
6131;SDS011;3097;42.692;23.278;2023-07-16T11:01:43;11.20;;;10.07;;
6131;SDS011;3097;42.692;23.278;2023-07-16T11:04:08;10.57;;;9.75;;
6131;SDS011;3097;42.692;23.278;2023-07-16T11:06:34;10.05;;;9.25;;
6131;SDS011;3097;42.692;23.278;2023-07-16T11:09:09;10.27;;;9.43;;
6131;SDS011;3097;42.692;23.278;2023-07-16T11:11:35;13.95;;;10.15;;
6131;SDS011;3097;42.692;23.278;2023-07-16T11:14:04;10.65;;;9.70;;
6131;SDS011;3097;42.692;23.278;2023-07-16T11:16:37;9.85;;;8.77;;
6131;SDS011;3097;42.692;23.278;2023-07-16T11:19:06;10.35;;;9.30;;
6131;SDS011;3097;42.692;23.278;2023-07-16T11:21:35;10.50;;;9.55;;
6131;SDS011;3097;42.692;23.278;2023-07-16T11:24:14;10.88;;;9.73;;
6131;SDS011;3097;42.692;23.278;2023-07-16T11:26:49;11.07;;;10.02;;
6131;SDS011;3097;42.692;23.278;2023-07-16T11:29:21;10.82;;;9.73;;
6131;SDS011;3097;42.692;23.278;2023-07-16T11:31:51;11.52;;;10.38;;
6131;SDS011;3097;42.692;23.278;2023-07-16T11:34:18;10.95;;;9.85;;
6131;SDS011;3097;42.692;23.278;2023-07-16T11:36:44;10.80;;;9.70;;
6131;SDS011;3097;42.692;23.278;2023-07-16T11:39:10;11.15;;;10.05;;
6131;SDS011;3097;42.692;23.278;2023-07-16T11:41:37;10.15;;;9.27;;
6131;SDS011;3097;42.692;23.278;2023-07-16T11:44:03;11.43;;;9.55;;
6131;SDS011;3097;42.692;23.278;2023-07-16T11:46:32;10.07;;;9.20;;
6131;SDS011;3097;42.692;23.278;2023-07-16T11:48:59;10.68;;;9.55;;
6131;SDS011;3097;42.692;23.278;2023-07-16T11:51:25;10.77;;;9.77;;
6131;SDS011;3097;42.692;23.278;2023-07-16T11:53:50;10.15;;;9.18;;
6131;SDS011;3097;42.692;23.278;2023-07-16T11:56:16;11.77;;;10.68;;
6131;SDS011;3097;42.692;23.278;2023-07-16T11:58:41;12.30;;;9.85;;
6131;SDS011;3097;42.692;23.278;2023-07-16T12:01:07;10.63;;;9.73;;
6131;SDS011;3097;42.692;23.278;2023-07-16T12:03:33;11.05;;;9.38;;
6131;SDS011;3097;42.692;23.278;2023-07-16T12:05:59;10.48;;;9.57;;
6131;SDS011;3097;42.692;23.278;2023-07-16T12:08:24;10.65;;;9.63;;
6131;SDS011;3097;42.692;23.278;2023-07-16T12:10:49;11.32;;;10.07;;
6131;SDS011;3097;42.692;23.278;2023-07-16T12:13:15;10.93;;;9.85;;
6131;SDS011;3097;42.692;23.278;2023-07-16T12:15:40;10.63;;;9.23;;
6131;SDS011;3097;42.692;23.278;2023-07-16T12:18:06;10.75;;;9.73;;
6131;SDS011;3097;42.692;23.278;2023-07-16T12:20:31;9.82;;;9.02;;
6131;SDS011;3097;42.692;23.278;2023-07-16T12:22:57;9.55;;;8.85;;
6131;SDS011;3097;42.692;23.278;2023-07-16T12:25:22;10.18;;;9.27;;
6131;SDS011;3097;42.692;23.278;2023-07-16T12:27:47;10.57;;;9.38;;
6131;SDS011;3097;42.692;23.278;2023-07-16T12:30:13;11.13;;;9.95;;
6131;SDS011;3097;42.692;23.278;2023-07-16T12:32:39;13.38;;;9.43;;
6131;SDS011;3097;42.692;23.278;2023-07-16T12:35:04;9.70;;;9.00;;
6131;SDS011;3097;42.692;23.278;2023-07-16T12:37:30;10.32;;;9.02;;
6131;SDS011;3097;42.692;23.278;2023-07-16T12:39:55;9.73;;;8.85;;
6131;SDS011;3097;42.692;23.278;2023-07-16T12:42:21;9.48;;;8.70;;
6131;SDS011;3097;42.692;23.278;2023-07-16T12:44:46;9.75;;;8.85;;
6131;SDS011;3097;42.692;23.278;2023-07-16T12:47:11;10.40;;;9.13;;
6131;SDS011;3097;42.692;23.278;2023-07-16T12:49:37;10.35;;;9.43;;
6131;SDS011;3097;42.692;23.278;2023-07-16T12:52:02;9.25;;;8.55;;
6131;SDS011;3097;42.692;23.278;2023-07-16T12:54:28;10.13;;;9.25;;
6131;SDS011;3097;42.692;23.278;2023-07-16T12:56:54;10.00;;;9.07;;
6131;SDS011;3097;42.692;23.278;2023-07-16T12:59:19;9.68;;;8.70;;
6131;SDS011;3097;42.692;23.278;2023-07-16T13:01:45;9.35;;;8.63;;
6131;SDS011;3097;42.692;23.278;2023-07-16T13:04:11;9.45;;;8.73;;
6131;SDS011;3097;42.692;23.278;2023-07-16T13:06:36;9.95;;;9.15;;
6131;SDS011;3097;42.692;23.278;2023-07-16T13:09:02;9.55;;;8.75;;
6131;SDS011;3097;42.692;23.278;2023-07-16T13:11:29;9.90;;;9.02;;
6131;SDS011;3097;42.692;23.278;2023-07-16T13:13:55;9.88;;;9.15;;
6131;SDS011;3097;42.692;23.278;2023-07-16T13:16:20;9.52;;;8.82;;
6131;SDS011;3097;42.692;23.278;2023-07-16T13:18:46;9.43;;;8.55;;
6131;SDS011;3097;42.692;23.278;2023-07-16T13:21:11;9.35;;;8.50;;
6131;SDS011;3097;42.692;23.278;2023-07-16T13:23:37;9.52;;;8.63;;
6131;SDS011;3097;42.692;23.278;2023-07-16T13:26:02;8.73;;;8.13;;
6131;SDS011;3097;42.692;23.278;2023-07-16T13:28:28;8.82;;;7.93;;
6131;SDS011;3097;42.692;23.278;2023-07-16T13:30:53;9.10;;;8.20;;
6131;SDS011;3097;42.692;23.278;2023-07-16T13:33:19;8.52;;;7.88;;
6131;SDS011;3097;42.692;23.278;2023-07-16T13:35:44;9.13;;;8.32;;
6131;SDS011;3097;42.692;23.278;2023-07-16T13:38:10;8.25;;;7.45;;
6131;SDS011;3097;42.692;23.278;2023-07-16T13:40:35;9.13;;;8.23;;
6131;SDS011;3097;42.692;23.278;2023-07-16T13:43:01;8.35;;;7.68;;
6131;SDS011;3097;42.692;23.278;2023-07-16T13:45:26;8.63;;;7.82;;
6131;SDS011;3097;42.692;23.278;2023-07-16T13:47:52;8.27;;;7.65;;
6131;SDS011;3097;42.692;23.278;2023-07-16T13:50:18;8.25;;;7.65;;
6131;SDS011;3097;42.692;23.278;2023-07-16T13:52:44;8.55;;;7.75;;
6131;SDS011;3097;42.692;23.278;2023-07-16T13:55:10;8.10;;;7.40;;
6131;SDS011;3097;42.692;23.278;2023-07-16T13:57:35;8.98;;;7.80;;
6131;SDS011;3097;42.692;23.278;2023-07-16T14:00:02;8.43;;;7.68;;
6131;SDS011;3097;42.692;23.278;2023-07-16T14:02:29;8.70;;;8.00;;
6131;SDS011;3097;42.692;23.278;2023-07-16T14:04:55;8.75;;;7.95;;
6131;SDS011;3097;42.692;23.278;2023-07-16T14:07:20;9.07;;;8.25;;
6131;SDS011;3097;42.692;23.278;2023-07-16T14:09:45;8.88;;;8.23;;
6131;SDS011;3097;42.692;23.278;2023-07-16T14:12:11;8.82;;;7.97;;
6131;SDS011;3097;42.692;23.278;2023-07-16T14:14:36;8.88;;;8.00;;
6131;SDS011;3097;42.692;23.278;2023-07-16T14:17:02;7.90;;;7.28;;
6131;SDS011;3097;42.692;23.278;2023-07-16T14:19:28;8.45;;;7.75;;
6131;SDS011;3097;42.692;23.278;2023-07-16T14:21:54;9.73;;;8.80;;
6131;SDS011;3097;42.692;23.278;2023-07-16T14:24:20;8.80;;;7.97;;
6131;SDS011;3097;42.692;23.278;2023-07-16T14:26:45;9.25;;;8.48;;
6131;SDS011;3097;42.692;23.278;2023-07-16T14:29:11;9.60;;;8.68;;
6131;SDS011;3097;42.692;23.278;2023-07-16T14:31:37;9.25;;;8.35;;
6131;SDS011;3097;42.692;23.278;2023-07-16T14:34:03;9.68;;;8.27;;
6131;SDS011;3097;42.692;23.278;2023-07-16T14:36:29;9.05;;;8.20;;
6131;SDS011;3097;42.692;23.278;2023-07-16T14:38:54;8.43;;;7.82;;
6131;SDS011;3097;42.692;23.278;2023-07-16T14:41:20;8.75;;;8.13;;
6131;SDS011;3097;42.692;23.278;2023-07-16T14:43:46;9.65;;;8.70;;
6131;SDS011;3097;42.692;23.278;2023-07-16T14:46:14;9.07;;;8.32;;
6131;SDS011;3097;42.692;23.278;2023-07-16T14:48:42;9.90;;;8.90;;
6131;SDS011;3097;42.692;23.278;2023-07-16T14:51:10;11.15;;;7.88;;
6131;SDS011;3097;42.692;23.278;2023-07-16T14:53:36;8.60;;;7.90;;
6131;SDS011;3097;42.692;23.278;2023-07-16T14:56:02;8.57;;;7.82;;
6131;SDS011;3097;42.692;23.278;2023-07-16T14:58:29;9.13;;;8.45;;
6131;SDS011;3097;42.692;23.278;2023-07-16T15:00:54;9.73;;;8.82;;
6131;SDS011;3097;42.692;23.278;2023-07-16T15:03:20;8.88;;;8.20;;
6131;SDS011;3097;42.692;23.278;2023-07-16T15:05:46;9.60;;;8.80;;
6131;SDS011;3097;42.692;23.278;2023-07-16T15:08:12;9.82;;;8.88;;